sensor_id;sensor_type;location;lat;lon;timestamp;temperature;humidity
64634;DHT22;51043;52.406;9.690;2023-02-11T19:53:57;8.40;99.90
64634;DHT22;51043;52.406;9.690;2023-02-11T19:56:25;8.30;99.90
64634;DHT22;51043;52.406;9.690;2023-02-11T19:58:54;8.30;99.90
64634;DHT22;51043;52.406;9.690;2023-02-11T20:01:22;8.40;99.90
64634;DHT22;51043;52.406;9.690;2023-02-11T20:03:52;8.40;99.90
64634;DHT22;51043;52.406;9.690;2023-02-11T20:06:29;8.40;99.90
64634;DHT22;51043;52.406;9.690;2023-02-11T20:09:02;8.40;99.90
64634;DHT22;51043;52.406;9.690;2023-02-11T20:11:30;8.40;99.90
64634;DHT22;51043;52.406;9.690;2023-02-11T20:13:57;8.40;99.90
64634;DHT22;51043;52.406;9.690;2023-02-11T20:16:27;8.30;99.90
64634;DHT22;51043;52.406;9.690;2023-02-11T20:19:10;8.40;99.90
64634;DHT22;51043;52.406;9.690;2023-02-11T20:21:43;8.40;99.90
64634;DHT22;51043;52.406;9.690;2023-02-11T20:24:13;8.30;99.90
64634;DHT22;51043;52.406;9.690;2023-02-11T20:26:40;8.30;99.90
64634;DHT22;51043;52.406;9.690;2023-02-11T20:29:08;8.30;99.90
64634;DHT22;51043;52.406;9.690;2023-02-11T20:31:36;8.20;99.90
64634;DHT22;51043;52.406;9.690;2023-02-11T20:34:03;8.20;99.90
64634;DHT22;51043;52.406;9.690;2023-02-11T20:36:32;8.20;99.90
64634;DHT22;51043;52.406;9.690;2023-02-11T20:39:09;8.10;99.90
64634;DHT22;51043;52.406;9.690;2023-02-11T20:41:37;8.00;99.90
64634;DHT22;51043;52.406;9.690;2023-02-11T20:44:06;8.00;99.90
64634;DHT22;51043;52.406;9.690;2023-02-11T20:46:40;7.90;99.90
64634;DHT22;51043;52.406;9.690;2023-02-11T20:49:10;7.90;99.90
64634;DHT22;51043;52.406;9.690;2023-02-11T20:51:38;7.90;99.90
64634;DHT22;51043;52.406;9.690;2023-02-11T20:54:05;7.90;99.90
64634;DHT22;51043;52.406;9.690;2023-02-11T20:56:34;7.90;99.90
64634;DHT22;51043;52.406;9.690;2023-02-11T20:59:05;7.90;99.90
64634;DHT22;51043;52.406;9.690;2023-02-11T21:01:37;7.80;99.90
64634;DHT22;51043;52.406;9.690;2023-02-11T21:04:11;8.00;99.90
64634;DHT22;51043;52.406;9.690;2023-02-11T21:06:40;7.80;99.90
64634;DHT22;51043;52.406;9.690;2023-02-11T21:09:10;7.80;99.90
64634;DHT22;51043;52.406;9.690;2023-02-11T21:11:41;7.80;99.90
64634;DHT22;51043;52.406;9.690;2023-02-11T21:14:08;7.80;99.90
64634;DHT22;51043;52.406;9.690;2023-02-11T21:16:39;7.90;99.90
64634;DHT22;51043;52.406;9.690;2023-02-11T21:19:06;7.90;99.90
64634;DHT22;51043;52.406;9.690;2023-02-11T21:21:35;7.90;99.90
64634;DHT22;51043;52.406;9.690;2023-02-11T21:24:05;7.90;99.90
64634;DHT22;51043;52.406;9.690;2023-02-11T21:26:34;7.90;99.90
64634;DHT22;51043;52.406;9.690;2023-02-11T21:29:04;7.90;99.90
64634;DHT22;51043;52.406;9.690;2023-02-11T21:31:33;7.90;99.90
64634;DHT22;51043;52.406;9.690;2023-02-11T21:34:05;7.90;99.90
64634;DHT22;51043;52.406;9.690;2023-02-11T21:36:32;7.90;99.90
64634;DHT22;51043;52.406;9.690;2023-02-11T21:39:00;7.90;99.90
64634;DHT22;51043;52.406;9.690;2023-02-11T21:41:29;7.70;99.90
64634;DHT22;51043;52.406;9.690;2023-02-11T21:43:56;7.90;99.90
64634;DHT22;51043;52.406;9.690;2023-02-11T21:46:26;7.90;99.90
64634;DHT22;51043;52.406;9.690;2023-02-11T21:48:53;7.90;99.90
64634;DHT22;51043;52.406;9.690;2023-02-11T21:51:23;7.90;99.90
64634;DHT22;51043;52.406;9.690;2023-02-11T21:53:55;7.90;99.90
64634;DHT22;51043;52.406;9.690;2023-02-11T21:56:23;7.90;99.90
64634;DHT22;51043;52.406;9.690;2023-02-11T21:58:54;7.80;99.90
64634;DHT22;51043;52.406;9.690;2023-02-11T22:01:28;7.90;99.90
64634;DHT22;51043;52.406;9.690;2023-02-11T22:03:56;7.80;99.90
64634;DHT22;51043;52.406;9.690;2023-02-11T22:06:26;7.90;99.90
64634;DHT22;51043;52.406;9.690;2023-02-11T22:08:54;7.90;99.90
64634;DHT22;51043;52.406;9.690;2023-02-11T22:11:21;7.80;99.90
64634;DHT22;51043;52.406;9.690;2023-02-11T22:13:56;7.80;99.90
64634;DHT22;51043;52.406;9.690;2023-02-11T22:16:28;7.80;99.90
64634;DHT22;51043;52.406;9.690;2023-02-11T22:18:56;8.00;99.90
64634;DHT22;51043;52.406;9.690;2023-02-11T22:21:24;7.80;99.90
64634;DHT22;51043;52.406;9.690;2023-02-11T22:23:54;7.80;99.90
64634;DHT22;51043;52.406;9.690;2023-02-11T22:26:22;7.80;99.90
64634;DHT22;51043;52.406;9.690;2023-02-11T22:28:50;7.80;99.90
64634;DHT22;51043;52.406;9.690;2023-02-11T22:31:23;7.80;99.90
64634;DHT22;51043;52.406;9.690;2023-02-11T22:33:50;7.80;99.90
64634;DHT22;51043;52.406;9.690;2023-02-11T22:36:20;7.80;99.90
64634;DHT22;51043;52.406;9.690;2023-02-11T22:38:48;7.80;99.90
64634;DHT22;51043;52.406;9.690;2023-02-11T22:41:16;7.80;99.90
64634;DHT22;51043;52.406;9.690;2023-02-11T22:43:44;7.80;99.90
64634;DHT22;51043;52.406;9.690;2023-02-11T22:46:13;7.80;99.90
64634;DHT22;51043;52.406;9.690;2023-02-11T22:48:41;7.80;99.90
64634;DHT22;51043;52.406;9.690;2023-02-11T22:51:17;7.80;99.90
64634;DHT22;51043;52.406;9.690;2023-02-11T22:53:53;7.90;99.90
64634;DHT22;51043;52.406;9.690;2023-02-11T22:56:21;7.80;99.90
64634;DHT22;51043;52.406;9.690;2023-02-11T22:58:49;7.80;99.90
64634;DHT22;51043;52.406;9.690;2023-02-11T23:01:17;7.80;99.90
64634;DHT22;51043;52.406;9.690;2023-02-11T23:03:44;7.90;99.90
64634;DHT22;51043;52.406;9.690;2023-02-11T23:06:11;7.90;99.90
64634;DHT22;51043;52.406;9.690;2023-02-11T23:08:39;7.90;99.90
64634;DHT22;51043;52.406;9.690;2023-02-11T23:11:16;7.90;99.90
64634;DHT22;51043;52.406;9.690;2023-02-11T23:13:46;7.80;99.90
64634;DHT22;51043;52.406;9.690;2023-02-11T23:16:17;7.90;99.90
64634;DHT22;51043;52.406;9.690;2023-02-11T23:18:45;7.90;99.90
64634;DHT22;51043;52.406;9.690;2023-02-11T23:21:18;7.90;99.90
64634;DHT22;51043;52.406;9.690;2023-02-11T23:23:48;7.90;99.90
64634;DHT22;51043;52.406;9.690;2023-02-11T23:26:16;7.90;99.90
64634;DHT22;51043;52.406;9.690;2023-02-11T23:28:44;7.90;99.90
64634;DHT22;51043;52.406;9.690;2023-02-11T23:31:17;7.90;99.90
64634;DHT22;51043;52.406;9.690;2023-02-11T23:33:45;7.90;99.90
64634;DHT22;51043;52.406;9.690;2023-02-11T23:36:14;8.00;99.90
64634;DHT22;51043;52.406;9.690;2023-02-11T23:38:45;7.90;99.90
64634;DHT22;51043;52.406;9.690;2023-02-11T23:41:12;8.00;99.90
64634;DHT22;51043;52.406;9.690;2023-02-11T23:43:40;8.00;99.90
64634;DHT22;51043;52.406;9.690;2023-02-11T23:46:07;8.00;99.90
64634;DHT22;51043;52.406;9.690;2023-02-11T23:48:35;8.10;99.90
64634;DHT22;51043;52.406;9.690;2023-02-11T23:51:04;8.10;99.90
64634;DHT22;51043;52.406;9.690;2023-02-11T23:53:31;8.10;99.90
64634;DHT22;51043;52.406;9.690;2023-02-11T23:55:58;8.10;99.90
64634;DHT22;51043;52.406;9.690;2023-02-11T23:58:25;8.10;99.90
